sensor_id;sensor_type;location;lat;lon;timestamp;temperature;humidity
70074;DHT22;57445;51.058;3.698;2022-07-22T00:00:33;17.90;88.70
70074;DHT22;57445;51.058;3.698;2022-07-22T00:03:00;17.70;88.80
70074;DHT22;57445;51.058;3.698;2022-07-22T00:05:27;17.70;88.50
70074;DHT22;57445;51.058;3.698;2022-07-22T00:07:55;17.70;88.60
70074;DHT22;57445;51.058;3.698;2022-07-22T00:10:22;17.90;88.00
70074;DHT22;57445;51.058;3.698;2022-07-22T00:12:49;17.80;87.50
70074;DHT22;57445;51.058;3.698;2022-07-22T00:15:17;17.60;88.20
70074;DHT22;57445;51.058;3.698;2022-07-22T00:17:44;17.60;88.40
70074;DHT22;57445;51.058;3.698;2022-07-22T00:20:11;17.70;88.40
70074;DHT22;57445;51.058;3.698;2022-07-22T00:22:38;17.80;88.00
70074;DHT22;57445;51.058;3.698;2022-07-22T00:25:07;17.60;88.60
70074;DHT22;57445;51.058;3.698;2022-07-22T00:27:38;17.50;89.00
70074;DHT22;57445;51.058;3.698;2022-07-22T00:30:06;17.50;88.90
70074;DHT22;57445;51.058;3.698;2022-07-22T00:32:33;17.50;88.90
70074;DHT22;57445;51.058;3.698;2022-07-22T00:35:00;17.40;89.30
70074;DHT22;57445;51.058;3.698;2022-07-22T00:37:27;17.30;89.70
70074;DHT22;57445;51.058;3.698;2022-07-22T00:39:54;17.30;89.90
70074;DHT22;57445;51.058;3.698;2022-07-22T00:42:23;17.50;90.00
70074;DHT22;57445;51.058;3.698;2022-07-22T00:44:49;17.30;89.90
70074;DHT22;57445;51.058;3.698;2022-07-22T00:47:16;17.20;90.30
70074;DHT22;57445;51.058;3.698;2022-07-22T00:49:43;17.30;90.40
70074;DHT22;57445;51.058;3.698;2022-07-22T00:52:10;17.10;90.30
70074;DHT22;57445;51.058;3.698;2022-07-22T00:54:37;17.20;90.30
70074;DHT22;57445;51.058;3.698;2022-07-22T00:57:04;17.20;90.20
70074;DHT22;57445;51.058;3.698;2022-07-22T00:59:33;17.20;90.20
70074;DHT22;57445;51.058;3.698;2022-07-22T01:02:00;17.20;90.10
70074;DHT22;57445;51.058;3.698;2022-07-22T01:04:27;17.20;90.10
70074;DHT22;57445;51.058;3.698;2022-07-22T01:06:54;17.30;90.00
70074;DHT22;57445;51.058;3.698;2022-07-22T01:09:21;17.20;90.20
70074;DHT22;57445;51.058;3.698;2022-07-22T01:11:52;17.00;90.80
70074;DHT22;57445;51.058;3.698;2022-07-22T01:14:19;17.00;90.80
70074;DHT22;57445;51.058;3.698;2022-07-22T01:16:48;17.10;90.70
70074;DHT22;57445;51.058;3.698;2022-07-22T01:19:15;17.00;90.60
70074;DHT22;57445;51.058;3.698;2022-07-22T01:21:44;17.00;90.70
70074;DHT22;57445;51.058;3.698;2022-07-22T01:24:11;16.90;90.70
70074;DHT22;57445;51.058;3.698;2022-07-22T01:26:38;16.90;90.90
70074;DHT22;57445;51.058;3.698;2022-07-22T01:29:06;16.80;90.90
70074;DHT22;57445;51.058;3.698;2022-07-22T01:31:34;16.80;91.20
70074;DHT22;57445;51.058;3.698;2022-07-22T01:34:01;16.70;91.40
70074;DHT22;57445;51.058;3.698;2022-07-22T01:36:28;16.70;91.50
70074;DHT22;57445;51.058;3.698;2022-07-22T01:38:56;16.70;91.60
70074;DHT22;57445;51.058;3.698;2022-07-22T01:41:23;16.70;91.50
70074;DHT22;57445;51.058;3.698;2022-07-22T01:43:49;16.80;91.80
70074;DHT22;57445;51.058;3.698;2022-07-22T01:46:16;16.60;91.70
70074;DHT22;57445;51.058;3.698;2022-07-22T01:48:45;16.60;91.80
70074;DHT22;57445;51.058;3.698;2022-07-22T01:51:12;16.60;91.80
70074;DHT22;57445;51.058;3.698;2022-07-22T01:53:39;16.70;91.70
70074;DHT22;57445;51.058;3.698;2022-07-22T01:56:07;16.60;91.70
70074;DHT22;57445;51.058;3.698;2022-07-22T01:58:34;16.60;91.60
70074;DHT22;57445;51.058;3.698;2022-07-22T02:01:01;16.60;91.70
70074;DHT22;57445;51.058;3.698;2022-07-22T02:03:28;16.60;91.60
70074;DHT22;57445;51.058;3.698;2022-07-22T02:05:55;16.70;91.40
70074;DHT22;57445;51.058;3.698;2022-07-22T02:08:22;16.80;90.90
70074;DHT22;57445;51.058;3.698;2022-07-22T02:10:49;16.90;90.70
70074;DHT22;57445;51.058;3.698;2022-07-22T02:13:17;16.90;90.70
70074;DHT22;57445;51.058;3.698;2022-07-22T02:15:44;17.00;90.70
70074;DHT22;57445;51.058;3.698;2022-07-22T02:18:11;16.90;90.60
70074;DHT22;57445;51.058;3.698;2022-07-22T02:20:38;17.00;90.40
70074;DHT22;57445;51.058;3.698;2022-07-22T02:23:06;17.00;90.30
70074;DHT22;57445;51.058;3.698;2022-07-22T02:25:33;17.10;90.30
70074;DHT22;57445;51.058;3.698;2022-07-22T02:28:00;17.00;90.20
70074;DHT22;57445;51.058;3.698;2022-07-22T02:30:29;16.90;90.40
70074;DHT22;57445;51.058;3.698;2022-07-22T02:32:56;16.80;90.60
70074;DHT22;57445;51.058;3.698;2022-07-22T02:35:23;16.70;90.70
70074;DHT22;57445;51.058;3.698;2022-07-22T02:37:50;16.80;90.70
70074;DHT22;57445;51.058;3.698;2022-07-22T02:40:17;16.80;90.60
70074;DHT22;57445;51.058;3.698;2022-07-22T02:42:44;16.90;90.40
70074;DHT22;57445;51.058;3.698;2022-07-22T02:45:12;16.80;90.50
70074;DHT22;57445;51.058;3.698;2022-07-22T02:47:47;16.80;90.60
70074;DHT22;57445;51.058;3.698;2022-07-22T02:50:14;16.80;90.40
70074;DHT22;57445;51.058;3.698;2022-07-22T02:52:42;16.80;90.50
70074;DHT22;57445;51.058;3.698;2022-07-22T02:55:09;17.00;90.60
70074;DHT22;57445;51.058;3.698;2022-07-22T02:57:36;17.00;90.20
70074;DHT22;57445;51.058;3.698;2022-07-22T03:00:05;16.90;90.30
70074;DHT22;57445;51.058;3.698;2022-07-22T03:02:33;17.00;90.30
70074;DHT22;57445;51.058;3.698;2022-07-22T03:05:02;17.10;90.10
70074;DHT22;57445;51.058;3.698;2022-07-22T03:07:29;17.00;90.00
70074;DHT22;57445;51.058;3.698;2022-07-22T03:09:56;16.90;90.20
70074;DHT22;57445;51.058;3.698;2022-07-22T03:12:23;16.80;90.50
70074;DHT22;57445;51.058;3.698;2022-07-22T03:14:50;16.80;90.60
70074;DHT22;57445;51.058;3.698;2022-07-22T03:17:17;16.80;90.80
70074;DHT22;57445;51.058;3.698;2022-07-22T03:19:44;16.80;90.80
70074;DHT22;57445;51.058;3.698;2022-07-22T03:22:13;16.90;91.00
70074;DHT22;57445;51.058;3.698;2022-07-22T03:24:40;16.90;90.90
70074;DHT22;57445;51.058;3.698;2022-07-22T03:27:06;17.00;90.60
70074;DHT22;57445;51.058;3.698;2022-07-22T03:29:33;17.10;90.30
70074;DHT22;57445;51.058;3.698;2022-07-22T03:32:01;17.30;90.10
70074;DHT22;57445;51.058;3.698;2022-07-22T03:34:28;17.20;90.00
70074;DHT22;57445;51.058;3.698;2022-07-22T03:36:55;17.10;90.20
70074;DHT22;57445;51.058;3.698;2022-07-22T03:39:23;17.20;90.50
70074;DHT22;57445;51.058;3.698;2022-07-22T03:41:50;16.80;90.80
70074;DHT22;57445;51.058;3.698;2022-07-22T03:44:18;16.90;90.80
70074;DHT22;57445;51.058;3.698;2022-07-22T03:46:46;17.00;90.70
70074;DHT22;57445;51.058;3.698;2022-07-22T03:49:13;17.00;90.70
70074;DHT22;57445;51.058;3.698;2022-07-22T03:51:40;17.00;90.80
70074;DHT22;57445;51.058;3.698;2022-07-22T03:54:07;17.10;90.60
70074;DHT22;57445;51.058;3.698;2022-07-22T03:56:35;16.90;90.50
70074;DHT22;57445;51.058;3.698;2022-07-22T03:59:02;17.00;90.20
70074;DHT22;57445;51.058;3.698;2022-07-22T04:01:30;16.90;90.40
70074;DHT22;57445;51.058;3.698;2022-07-22T04:03:57;17.00;90.30
70074;DHT22;57445;51.058;3.698;2022-07-22T04:06:27;17.10;90.20
70074;DHT22;57445;51.058;3.698;2022-07-22T04:08:54;17.20;89.60
70074;DHT22;57445;51.058;3.698;2022-07-22T04:11:22;17.30;89.20
70074;DHT22;57445;51.058;3.698;2022-07-22T04:13:51;17.50;88.90
70074;DHT22;57445;51.058;3.698;2022-07-22T04:16:19;17.30;89.20
70074;DHT22;57445;51.058;3.698;2022-07-22T04:18:46;17.40;88.80
70074;DHT22;57445;51.058;3.698;2022-07-22T04:21:13;17.50;88.40
70074;DHT22;57445;51.058;3.698;2022-07-22T04:23:40;17.60;88.50
70074;DHT22;57445;51.058;3.698;2022-07-22T04:26:07;17.60;88.00
70074;DHT22;57445;51.058;3.698;2022-07-22T04:28:34;17.70;87.20
70074;DHT22;57445;51.058;3.698;2022-07-22T04:31:03;17.90;87.00
70074;DHT22;57445;51.058;3.698;2022-07-22T04:33:30;17.80;86.80
70074;DHT22;57445;51.058;3.698;2022-07-22T04:35:57;18.00;86.60
70074;DHT22;57445;51.058;3.698;2022-07-22T04:38:25;18.00;86.00
70074;DHT22;57445;51.058;3.698;2022-07-22T04:40:52;18.00;85.60
70074;DHT22;57445;51.058;3.698;2022-07-22T04:43:20;18.00;86.20
70074;DHT22;57445;51.058;3.698;2022-07-22T04:45:50;18.00;86.20
70074;DHT22;57445;51.058;3.698;2022-07-22T04:48:18;17.90;86.20
70074;DHT22;57445;51.058;3.698;2022-07-22T04:50:45;18.00;87.50
70074;DHT22;57445;51.058;3.698;2022-07-22T04:53:12;18.10;86.20
70074;DHT22;57445;51.058;3.698;2022-07-22T04:55:39;18.40;84.90
70074;DHT22;57445;51.058;3.698;2022-07-22T04:58:07;18.40;83.80
70074;DHT22;57445;51.058;3.698;2022-07-22T05:00:35;18.60;83.60
70074;DHT22;57445;51.058;3.698;2022-07-22T05:03:02;18.50;83.10
70074;DHT22;57445;51.058;3.698;2022-07-22T05:05:30;18.50;83.60
70074;DHT22;57445;51.058;3.698;2022-07-22T05:07:57;18.30;85.10
70074;DHT22;57445;51.058;3.698;2022-07-22T05:10:24;18.60;85.30
70074;DHT22;57445;51.058;3.698;2022-07-22T05:12:51;18.70;84.60
70074;DHT22;57445;51.058;3.698;2022-07-22T05:15:18;18.70;84.00
70074;DHT22;57445;51.058;3.698;2022-07-22T05:17:45;18.80;83.60
70074;DHT22;57445;51.058;3.698;2022-07-22T05:20:12;19.00;83.40
70074;DHT22;57445;51.058;3.698;2022-07-22T05:22:41;19.20;82.80
70074;DHT22;57445;51.058;3.698;2022-07-22T05:25:08;19.10;82.50
70074;DHT22;57445;51.058;3.698;2022-07-22T05:27:35;18.80;83.70
70074;DHT22;57445;51.058;3.698;2022-07-22T05:30:03;18.50;84.90
70074;DHT22;57445;51.058;3.698;2022-07-22T05:32:30;18.50;84.60
70074;DHT22;57445;51.058;3.698;2022-07-22T05:34:57;18.70;83.70
70074;DHT22;57445;51.058;3.698;2022-07-22T05:37:25;18.70;83.70
70074;DHT22;57445;51.058;3.698;2022-07-22T05:39:55;18.80;83.60
70074;DHT22;57445;51.058;3.698;2022-07-22T05:42:22;18.80;83.40
70074;DHT22;57445;51.058;3.698;2022-07-22T05:44:49;18.90;83.50
70074;DHT22;57445;51.058;3.698;2022-07-22T05:47:16;18.90;84.20
70074;DHT22;57445;51.058;3.698;2022-07-22T05:49:43;19.20;82.90
70074;DHT22;57445;51.058;3.698;2022-07-22T05:52:10;19.10;81.70
70074;DHT22;57445;51.058;3.698;2022-07-22T05:54:37;19.50;80.40
70074;DHT22;57445;51.058;3.698;2022-07-22T05:57:06;19.10;79.30
70074;DHT22;57445;51.058;3.698;2022-07-22T05:59:35;18.90;81.20
70074;DHT22;57445;51.058;3.698;2022-07-22T06:02:02;19.00;81.90
70074;DHT22;57445;51.058;3.698;2022-07-22T06:04:29;19.10;81.60
70074;DHT22;57445;51.058;3.698;2022-07-22T06:06:56;19.20;79.80
70074;DHT22;57445;51.058;3.698;2022-07-22T06:09:23;19.20;80.30
70074;DHT22;57445;51.058;3.698;2022-07-22T06:11:50;19.50;77.80
70074;DHT22;57445;51.058;3.698;2022-07-22T06:14:19;19.50;78.00
70074;DHT22;57445;51.058;3.698;2022-07-22T06:16:47;20.00;77.00
70074;DHT22;57445;51.058;3.698;2022-07-22T06:19:14;20.20;75.00
70074;DHT22;57445;51.058;3.698;2022-07-22T06:21:41;20.10;74.60
70074;DHT22;57445;51.058;3.698;2022-07-22T06:24:08;19.80;76.10
70074;DHT22;57445;51.058;3.698;2022-07-22T06:26:35;19.50;77.30
70074;DHT22;57445;51.058;3.698;2022-07-22T06:29:02;19.70;77.50
70074;DHT22;57445;51.058;3.698;2022-07-22T06:31:30;19.60;77.50
70074;DHT22;57445;51.058;3.698;2022-07-22T06:33:59;20.20;76.00
70074;DHT22;57445;51.058;3.698;2022-07-22T06:36:30;20.40;75.30
70074;DHT22;57445;51.058;3.698;2022-07-22T06:38:57;20.10;76.50
70074;DHT22;57445;51.058;3.698;2022-07-22T06:41:26;20.10;76.20
70074;DHT22;57445;51.058;3.698;2022-07-22T06:43:53;20.60;74.30
70074;DHT22;57445;51.058;3.698;2022-07-22T06:46:20;20.50;75.10
70074;DHT22;57445;51.058;3.698;2022-07-22T06:48:49;20.40;76.40
70074;DHT22;57445;51.058;3.698;2022-07-22T06:51:16;20.20;76.30
70074;DHT22;57445;51.058;3.698;2022-07-22T06:53:48;20.50;75.70
70074;DHT22;57445;51.058;3.698;2022-07-22T06:56:15;20.90;74.90
70074;DHT22;57445;51.058;3.698;2022-07-22T06:58:42;21.70;72.10
70074;DHT22;57445;51.058;3.698;2022-07-22T07:01:09;22.40;68.40
70074;DHT22;57445;51.058;3.698;2022-07-22T07:03:36;22.60;66.30
70074;DHT22;57445;51.058;3.698;2022-07-22T07:06:07;22.90;65.10
70074;DHT22;57445;51.058;3.698;2022-07-22T07:08:34;22.40;66.60
70074;DHT22;57445;51.058;3.698;2022-07-22T07:11:01;21.60;68.00
70074;DHT22;57445;51.058;3.698;2022-07-22T07:13:29;21.80;69.00
70074;DHT22;57445;51.058;3.698;2022-07-22T07:15:56;22.50;65.90
70074;DHT22;57445;51.058;3.698;2022-07-22T07:18:23;22.80;64.40
70074;DHT22;57445;51.058;3.698;2022-07-22T07:20:51;23.20;62.70
70074;DHT22;57445;51.058;3.698;2022-07-22T07:23:20;23.30;61.70
70074;DHT22;57445;51.058;3.698;2022-07-22T07:25:48;22.30;64.30
70074;DHT22;57445;51.058;3.698;2022-07-22T07:28:15;21.40;67.10
70074;DHT22;57445;51.058;3.698;2022-07-22T07:30:42;21.30;67.80
70074;DHT22;57445;51.058;3.698;2022-07-22T07:33:09;21.90;66.50
70074;DHT22;57445;51.058;3.698;2022-07-22T07:35:36;22.70;63.00
70074;DHT22;57445;51.058;3.698;2022-07-22T07:38:04;22.40;63.90
70074;DHT22;57445;51.058;3.698;2022-07-22T07:40:33;22.30;63.20
70074;DHT22;57445;51.058;3.698;2022-07-22T07:43:00;21.90;65.50
70074;DHT22;57445;51.058;3.698;2022-07-22T07:45:27;21.40;67.30
70074;DHT22;57445;51.058;3.698;2022-07-22T07:47:54;21.30;68.10
70074;DHT22;57445;51.058;3.698;2022-07-22T07:50:21;21.20;68.00
70074;DHT22;57445;51.058;3.698;2022-07-22T07:52:50;21.50;67.90
70074;DHT22;57445;51.058;3.698;2022-07-22T07:55:21;20.90;69.30
70074;DHT22;57445;51.058;3.698;2022-07-22T07:57:49;21.50;68.70
70074;DHT22;57445;51.058;3.698;2022-07-22T08:00:21;21.90;67.50
70074;DHT22;57445;51.058;3.698;2022-07-22T08:02:48;22.70;64.60
70074;DHT22;57445;51.058;3.698;2022-07-22T08:05:15;23.20;63.00
70074;DHT22;57445;51.058;3.698;2022-07-22T08:07:45;24.00;60.20
70074;DHT22;57445;51.058;3.698;2022-07-22T08:10:14;24.40;58.90
70074;DHT22;57445;51.058;3.698;2022-07-22T08:12:41;24.50;59.00
70074;DHT22;57445;51.058;3.698;2022-07-22T08:15:09;24.40;58.80
70074;DHT22;57445;51.058;3.698;2022-07-22T08:17:36;24.80;57.70
70074;DHT22;57445;51.058;3.698;2022-07-22T08:20:08;24.60;56.80
70074;DHT22;57445;51.058;3.698;2022-07-22T08:22:35;24.60;58.10
70074;DHT22;57445;51.058;3.698;2022-07-22T08:25:03;24.00;59.90
70074;DHT22;57445;51.058;3.698;2022-07-22T08:27:30;24.20;59.40
70074;DHT22;57445;51.058;3.698;2022-07-22T08:30:14;24.20;58.70
70074;DHT22;57445;51.058;3.698;2022-07-22T08:32:41;24.40;58.90
70074;DHT22;57445;51.058;3.698;2022-07-22T08:35:08;23.60;60.80
70074;DHT22;57445;51.058;3.698;2022-07-22T08:37:36;22.70;63.50
70074;DHT22;57445;51.058;3.698;2022-07-22T08:40:06;22.40;65.00
70074;DHT22;57445;51.058;3.698;2022-07-22T08:42:38;22.90;63.00
70074;DHT22;57445;51.058;3.698;2022-07-22T08:45:06;23.70;61.10
70074;DHT22;57445;51.058;3.698;2022-07-22T08:47:35;24.00;59.00
70074;DHT22;57445;51.058;3.698;2022-07-22T08:50:03;24.40;57.20
70074;DHT22;57445;51.058;3.698;2022-07-22T08:52:30;24.00;58.60
70074;DHT22;57445;51.058;3.698;2022-07-22T08:54:57;23.70;59.70
70074;DHT22;57445;51.058;3.698;2022-07-22T08:57:24;24.10;58.50
70074;DHT22;57445;51.058;3.698;2022-07-22T08:59:53;24.20;58.80
70074;DHT22;57445;51.058;3.698;2022-07-22T09:02:21;24.70;57.70
70074;DHT22;57445;51.058;3.698;2022-07-22T09:04:55;25.30;56.40
70074;DHT22;57445;51.058;3.698;2022-07-22T09:07:29;25.10;56.20
70074;DHT22;57445;51.058;3.698;2022-07-22T09:09:57;25.10;56.00
70074;DHT22;57445;51.058;3.698;2022-07-22T09:12:25;25.60;54.50
70074;DHT22;57445;51.058;3.698;2022-07-22T09:14:56;25.60;53.20
70074;DHT22;57445;51.058;3.698;2022-07-22T09:17:28;25.70;53.80
70074;DHT22;57445;51.058;3.698;2022-07-22T09:19:59;26.10;53.50
70074;DHT22;57445;51.058;3.698;2022-07-22T09:22:38;26.10;53.20
70074;DHT22;57445;51.058;3.698;2022-07-22T09:25:22;24.90;54.80
70074;DHT22;57445;51.058;3.698;2022-07-22T09:27:50;25.30;54.30
70074;DHT22;57445;51.058;3.698;2022-07-22T09:30:20;25.20;54.70
70074;DHT22;57445;51.058;3.698;2022-07-22T09:32:48;25.20;53.70
70074;DHT22;57445;51.058;3.698;2022-07-22T09:35:17;25.60;54.40
70074;DHT22;57445;51.058;3.698;2022-07-22T09:37:50;26.10;52.80
70074;DHT22;57445;51.058;3.698;2022-07-22T09:40:19;26.70;51.60
70074;DHT22;57445;51.058;3.698;2022-07-22T09:42:49;26.70;51.80
70074;DHT22;57445;51.058;3.698;2022-07-22T09:45:18;26.80;50.80
70074;DHT22;57445;51.058;3.698;2022-07-22T09:47:46;27.00;50.80
70074;DHT22;57445;51.058;3.698;2022-07-22T09:50:18;26.90;50.60
70074;DHT22;57445;51.058;3.698;2022-07-22T09:52:46;26.20;52.30
70074;DHT22;57445;51.058;3.698;2022-07-22T09:55:15;26.10;53.30
70074;DHT22;57445;51.058;3.698;2022-07-22T09:57:43;25.20;55.40
70074;DHT22;57445;51.058;3.698;2022-07-22T10:00:11;25.00;55.70
70074;DHT22;57445;51.058;3.698;2022-07-22T10:02:41;25.70;53.80
70074;DHT22;57445;51.058;3.698;2022-07-22T10:05:12;26.20;52.50
70074;DHT22;57445;51.058;3.698;2022-07-22T10:07:43;25.50;52.90
70074;DHT22;57445;51.058;3.698;2022-07-22T10:10:12;24.70;55.10
70074;DHT22;57445;51.058;3.698;2022-07-22T10:12:40;24.70;55.60
70074;DHT22;57445;51.058;3.698;2022-07-22T10:15:08;25.40;54.30
70074;DHT22;57445;51.058;3.698;2022-07-22T10:17:38;25.20;54.10
70074;DHT22;57445;51.058;3.698;2022-07-22T10:20:06;24.10;57.40
70074;DHT22;57445;51.058;3.698;2022-07-22T10:22:50;25.00;56.40
70074;DHT22;57445;51.058;3.698;2022-07-22T10:25:18;25.30;54.50
70074;DHT22;57445;51.058;3.698;2022-07-22T10:27:47;24.70;56.10
70074;DHT22;57445;51.058;3.698;2022-07-22T10:30:19;24.30;57.60
70074;DHT22;57445;51.058;3.698;2022-07-22T10:33:01;24.20;58.20
70074;DHT22;57445;51.058;3.698;2022-07-22T10:35:29;25.30;55.70
70074;DHT22;57445;51.058;3.698;2022-07-22T10:38:04;25.90;52.70
70074;DHT22;57445;51.058;3.698;2022-07-22T10:40:46;26.50;51.40
70074;DHT22;57445;51.058;3.698;2022-07-22T10:43:13;26.70;51.40
70074;DHT22;57445;51.058;3.698;2022-07-22T10:45:44;26.30;52.00
70074;DHT22;57445;51.058;3.698;2022-07-22T10:48:14;25.80;54.10
70074;DHT22;57445;51.058;3.698;2022-07-22T10:50:50;26.10;53.00
70074;DHT22;57445;51.058;3.698;2022-07-22T10:53:20;26.20;51.60
70074;DHT22;57445;51.058;3.698;2022-07-22T10:56:04;26.20;52.00
70074;DHT22;57445;51.058;3.698;2022-07-22T10:58:43;26.60;51.60
70074;DHT22;57445;51.058;3.698;2022-07-22T11:01:12;26.70;51.40
70074;DHT22;57445;51.058;3.698;2022-07-22T11:03:41;26.50;51.30
70074;DHT22;57445;51.058;3.698;2022-07-22T11:06:16;26.00;53.00
70074;DHT22;57445;51.058;3.698;2022-07-22T11:08:47;26.10;52.20
70074;DHT22;57445;51.058;3.698;2022-07-22T11:11:15;26.20;52.50
70074;DHT22;57445;51.058;3.698;2022-07-22T11:13:43;26.40;51.50
70074;DHT22;57445;51.058;3.698;2022-07-22T11:16:19;26.40;51.70
70074;DHT22;57445;51.058;3.698;2022-07-22T11:18:49;26.10;51.90
70074;DHT22;57445;51.058;3.698;2022-07-22T11:21:18;26.50;51.50
70074;DHT22;57445;51.058;3.698;2022-07-22T11:23:49;25.90;52.20
70074;DHT22;57445;51.058;3.698;2022-07-22T11:26:19;26.00;52.40
70074;DHT22;57445;51.058;3.698;2022-07-22T11:28:46;26.30;51.90
70074;DHT22;57445;51.058;3.698;2022-07-22T11:31:16;26.50;51.70
70074;DHT22;57445;51.058;3.698;2022-07-22T11:33:43;26.70;50.70
70074;DHT22;57445;51.058;3.698;2022-07-22T11:36:11;25.70;53.30
70074;DHT22;57445;51.058;3.698;2022-07-22T11:38:43;25.60;54.10
70074;DHT22;57445;51.058;3.698;2022-07-22T11:41:13;25.70;53.80
70074;DHT22;57445;51.058;3.698;2022-07-22T11:43:42;25.40;53.70
70074;DHT22;57445;51.058;3.698;2022-07-22T11:46:10;24.70;55.90
70074;DHT22;57445;51.058;3.698;2022-07-22T11:48:38;24.70;55.80
70074;DHT22;57445;51.058;3.698;2022-07-22T11:51:06;24.80;55.30
70074;DHT22;57445;51.058;3.698;2022-07-22T11:53:36;25.00;54.40
70074;DHT22;57445;51.058;3.698;2022-07-22T11:56:05;25.50;54.10
70074;DHT22;57445;51.058;3.698;2022-07-22T11:58:39;26.50;51.90
70074;DHT22;57445;51.058;3.698;2022-07-22T12:01:07;27.10;50.40
70074;DHT22;57445;51.058;3.698;2022-07-22T12:03:35;26.20;52.50
70074;DHT22;57445;51.058;3.698;2022-07-22T12:06:05;25.60;53.90
70074;DHT22;57445;51.058;3.698;2022-07-22T12:08:33;25.30;54.80
70074;DHT22;57445;51.058;3.698;2022-07-22T12:11:02;25.50;54.60
70074;DHT22;57445;51.058;3.698;2022-07-22T12:13:30;26.00;53.30
70074;DHT22;57445;51.058;3.698;2022-07-22T12:15:59;26.70;51.40
70074;DHT22;57445;51.058;3.698;2022-07-22T12:18:27;27.50;49.90
70074;DHT22;57445;51.058;3.698;2022-07-22T12:20:55;27.60;49.70
70074;DHT22;57445;51.058;3.698;2022-07-22T12:23:24;27.10;50.00
70074;DHT22;57445;51.058;3.698;2022-07-22T12:25:54;27.20;50.30
70074;DHT22;57445;51.058;3.698;2022-07-22T12:28:21;27.40;49.50
70074;DHT22;57445;51.058;3.698;2022-07-22T12:30:49;26.00;52.30
70074;DHT22;57445;51.058;3.698;2022-07-22T12:33:20;25.40;54.00
70074;DHT22;57445;51.058;3.698;2022-07-22T12:35:59;25.80;52.90
70074;DHT22;57445;51.058;3.698;2022-07-22T12:38:27;26.60;51.80
70074;DHT22;57445;51.058;3.698;2022-07-22T12:40:55;26.40;52.10
70074;DHT22;57445;51.058;3.698;2022-07-22T12:43:26;27.00;50.30
70074;DHT22;57445;51.058;3.698;2022-07-22T12:45:53;27.50;49.70
70074;DHT22;57445;51.058;3.698;2022-07-22T12:48:27;28.10;48.30
70074;DHT22;57445;51.058;3.698;2022-07-22T12:50:57;27.00;50.50
70074;DHT22;57445;51.058;3.698;2022-07-22T12:53:25;27.00;50.70
70074;DHT22;57445;51.058;3.698;2022-07-22T12:55:57;27.00;50.70
70074;DHT22;57445;51.058;3.698;2022-07-22T12:58:27;27.20;50.30
70074;DHT22;57445;51.058;3.698;2022-07-22T13:00:57;27.20;50.60
70074;DHT22;57445;51.058;3.698;2022-07-22T13:03:25;27.70;49.50
70074;DHT22;57445;51.058;3.698;2022-07-22T13:05:55;27.50;49.60
70074;DHT22;57445;51.058;3.698;2022-07-22T13:08:23;26.80;51.50
70074;DHT22;57445;51.058;3.698;2022-07-22T13:10:51;26.60;52.20
70074;DHT22;57445;51.058;3.698;2022-07-22T13:13:19;26.90;51.20
70074;DHT22;57445;51.058;3.698;2022-07-22T13:15:47;27.10;50.60
70074;DHT22;57445;51.058;3.698;2022-07-22T13:18:15;26.90;51.50
70074;DHT22;57445;51.058;3.698;2022-07-22T13:20:45;27.30;50.80
70074;DHT22;57445;51.058;3.698;2022-07-22T13:23:14;27.60;49.80
70074;DHT22;57445;51.058;3.698;2022-07-22T13:25:42;27.20;50.70
70074;DHT22;57445;51.058;3.698;2022-07-22T13:28:11;27.50;50.00
70074;DHT22;57445;51.058;3.698;2022-07-22T13:30:40;28.00;48.90
70074;DHT22;57445;51.058;3.698;2022-07-22T13:33:07;28.10;48.60
70074;DHT22;57445;51.058;3.698;2022-07-22T13:35:34;28.00;49.70
70074;DHT22;57445;51.058;3.698;2022-07-22T13:38:03;27.10;50.60
70074;DHT22;57445;51.058;3.698;2022-07-22T13:40:30;27.00;51.80
70074;DHT22;57445;51.058;3.698;2022-07-22T13:42:57;27.60;50.50
70074;DHT22;57445;51.058;3.698;2022-07-22T13:45:25;26.90;51.50
70074;DHT22;57445;51.058;3.698;2022-07-22T13:47:51;26.90;52.30
70074;DHT22;57445;51.058;3.698;2022-07-22T13:50:19;27.70;50.80
70074;DHT22;57445;51.058;3.698;2022-07-22T13:52:46;27.00;51.00
70074;DHT22;57445;51.058;3.698;2022-07-22T13:55:14;27.30;50.50
70074;DHT22;57445;51.058;3.698;2022-07-22T13:57:43;27.60;50.10
70074;DHT22;57445;51.058;3.698;2022-07-22T14:00:10;27.80;49.40
70074;DHT22;57445;51.058;3.698;2022-07-22T14:02:38;27.20;50.70
70074;DHT22;57445;51.058;3.698;2022-07-22T14:05:06;27.10;51.30
70074;DHT22;57445;51.058;3.698;2022-07-22T14:07:33;26.50;51.90
70074;DHT22;57445;51.058;3.698;2022-07-22T14:10:02;25.90;53.40
70074;DHT22;57445;51.058;3.698;2022-07-22T14:12:30;25.50;54.50
70074;DHT22;57445;51.058;3.698;2022-07-22T14:14:57;25.60;54.10
70074;DHT22;57445;51.058;3.698;2022-07-22T14:17:24;26.20;53.20
70074;DHT22;57445;51.058;3.698;2022-07-22T14:19:51;26.20;53.00
70074;DHT22;57445;51.058;3.698;2022-07-22T14:22:18;26.70;51.30
70074;DHT22;57445;51.058;3.698;2022-07-22T14:24:45;26.10;52.40
70074;DHT22;57445;51.058;3.698;2022-07-22T14:27:12;26.50;52.50
70074;DHT22;57445;51.058;3.698;2022-07-22T14:29:40;26.20;53.00
70074;DHT22;57445;51.058;3.698;2022-07-22T14:32:07;25.80;53.70
70074;DHT22;57445;51.058;3.698;2022-07-22T14:34:34;25.30;55.40
70074;DHT22;57445;51.058;3.698;2022-07-22T14:37:01;25.50;55.00
70074;DHT22;57445;51.058;3.698;2022-07-22T14:39:28;25.90;53.80
70074;DHT22;57445;51.058;3.698;2022-07-22T14:41:55;25.80;53.70
70074;DHT22;57445;51.058;3.698;2022-07-22T14:44:23;25.60;54.40
70074;DHT22;57445;51.058;3.698;2022-07-22T14:46:51;25.40;54.90
70074;DHT22;57445;51.058;3.698;2022-07-22T14:49:18;25.50;54.90
70074;DHT22;57445;51.058;3.698;2022-07-22T14:51:45;25.50;55.00
70074;DHT22;57445;51.058;3.698;2022-07-22T14:54:12;25.10;55.40
70074;DHT22;57445;51.058;3.698;2022-07-22T14:56:39;25.10;55.30
70074;DHT22;57445;51.058;3.698;2022-07-22T14:59:06;24.70;56.20
70074;DHT22;57445;51.058;3.698;2022-07-22T15:01:33;24.60;56.80
70074;DHT22;57445;51.058;3.698;2022-07-22T15:04:02;24.70;56.50
70074;DHT22;57445;51.058;3.698;2022-07-22T15:06:29;24.60;57.10
70074;DHT22;57445;51.058;3.698;2022-07-22T15:08:56;24.60;57.00
70074;DHT22;57445;51.058;3.698;2022-07-22T15:11:23;24.90;56.10
70074;DHT22;57445;51.058;3.698;2022-07-22T15:13:50;24.70;56.50
70074;DHT22;57445;51.058;3.698;2022-07-22T15:16:17;25.20;55.70
70074;DHT22;57445;51.058;3.698;2022-07-22T15:18:44;24.90;55.80
70074;DHT22;57445;51.058;3.698;2022-07-22T15:21:14;25.00;56.40
70074;DHT22;57445;51.058;3.698;2022-07-22T15:23:42;25.10;56.20
70074;DHT22;57445;51.058;3.698;2022-07-22T15:26:09;24.40;57.40
70074;DHT22;57445;51.058;3.698;2022-07-22T15:28:36;24.20;58.40
70074;DHT22;57445;51.058;3.698;2022-07-22T15:31:03;24.20;58.80
70074;DHT22;57445;51.058;3.698;2022-07-22T15:33:31;24.50;58.20
70074;DHT22;57445;51.058;3.698;2022-07-22T15:36:02;24.80;56.80